Time;durP1;ratioP1;P1;durP2;ratioP2;P2;SDS_P1;SDS_P2;PMS_P1;PMS_P2;Temp;Humidity;BMP_temperature;BMP_pressure;BME280_temperature;BME280_humidity;BME280_pressure;Samples;Min_cycle;Max_cycle;Signal;HPM_P1;HPM_P2
2023/03/25 00:01:07;;;;;;;2.10;1.20;;;10.70;99.90;;;;;;5062498;28;20060;-34
2023/03/25 00:03:37;;;;;;;4.05;1.40;;;10.70;99.90;;;;;;5063511;28;20424;-35
2023/03/25 00:06:08;;;;;;;3.95;1.52;;;10.70;99.90;;;;;;5063344;28;20113;-33
2023/03/25 00:08:35;;;;;;;4.30;1.52;;;10.70;99.90;;;;;;5063619;28;20028;-33
2023/03/25 00:11:03;;;;;;;6.10;1.30;;;10.60;99.90;;;;;;5063378;28;20554;-34
2023/03/25 00:13:30;;;;;;;3.08;1.20;;;10.70;99.90;;;;;;5064234;28;20025;-34
2023/03/25 00:15:57;;;;;;;5.55;1.40;;;10.70;99.90;;;;;;5062602;28;20043;-34
2023/03/25 00:18:24;;;;;;;5.72;1.48;;;10.60;99.90;;;;;;5063102;28;20028;-35
2023/03/25 00:20:51;;;;;;;4.00;1.30;;;10.60;99.90;;;;;;5064175;28;20087;-35
2023/03/25 00:23:18;;;;;;;3.70;1.30;;;10.60;99.90;;;;;;5061554;28;20050;-34
2023/03/25 00:25:44;;;;;;;3.83;1.60;;;10.60;99.90;;;;;;5063223;28;20074;-35
2023/03/25 00:28:10;;;;;;;6.13;1.67;;;10.60;99.90;;;;;;5061614;28;20024;-35
2023/03/25 00:30:40;;;;;;;4.95;1.40;;;10.60;99.90;;;;;;5062381;28;20035;-35
2023/03/25 00:33:09;;;;;;;3.50;1.40;;;10.60;99.90;;;;;;5061857;28;20402;-34
2023/03/25 00:35:36;;;;;;;4.50;1.50;;;10.60;99.90;;;;;;5063038;28;20028;-35
2023/03/25 00:38:02;;;;;;;2.63;1.50;;;10.60;99.90;;;;;;5062417;28;20139;-34
2023/03/25 00:40:36;;;;;;;4.05;1.55;;;10.60;99.90;;;;;;5062908;28;20518;-34
2023/03/25 00:43:03;;;;;;;3.33;1.30;;;10.70;99.90;;;;;;5061866;28;20157;-34
2023/03/25 00:45:29;;;;;;;5.68;1.30;;;10.70;99.90;;;;;;5062642;28;20068;-34
2023/03/25 00:47:55;;;;;;;5.93;1.52;;;10.60;99.90;;;;;;5062520;28;20155;-33
2023/03/25 00:50:21;;;;;;;4.43;1.35;;;10.70;99.90;;;;;;5061770;28;20139;-34
2023/03/25 00:52:52;;;;;;;6.13;1.55;;;10.60;99.90;;;;;;5063396;28;20526;-35
2023/03/25 00:55:18;;;;;;;6.65;1.40;;;10.60;99.90;;;;;;5061828;28;20110;-35
2023/03/25 00:57:43;;;;;;;5.97;1.83;;;10.60;99.90;;;;;;5061709;28;20024;-34
2023/03/25 01:00:12;;;;;;;8.70;1.80;;;10.60;99.90;;;;;;5062395;28;20054;-34
2023/03/25 01:02:38;;;;;;;5.35;1.95;;;10.60;99.90;;;;;;5062976;28;20078;-35
2023/03/25 01:05:04;;;;;;;5.28;1.50;;;10.60;99.90;;;;;;5061387;28;20020;-34
2023/03/25 01:07:32;;;;;;;3.92;1.60;;;10.60;99.90;;;;;;5062159;28;20489;-35
2023/03/25 01:09:58;;;;;;;4.93;1.65;;;10.60;99.90;;;;;;5050402;28;20028;-34
2023/03/25 01:12:25;;;;;;;6.72;2.00;;;10.60;99.90;;;;;;5061142;28;20029;-34
2023/03/25 01:14:52;;;;;;;6.47;1.88;;;10.60;99.90;;;;;;5062374;28;20043;-35
2023/03/25 01:17:18;;;;;;;7.38;1.77;;;10.60;99.90;;;;;;5061726;28;20047;-35
2023/03/25 01:19:46;;;;;;;5.57;2.00;;;10.60;99.90;;;;;;5061298;28;20013;-35
2023/03/25 01:22:12;;;;;;;6.82;1.85;;;10.60;99.90;;;;;;5061117;28;20032;-35
2023/03/25 01:24:37;;;;;;;8.35;2.17;;;10.60;99.90;;;;;;5061867;28;20051;-33
2023/03/25 01:27:03;;;;;;;6.47;1.80;;;10.60;99.90;;;;;;5060886;28;20035;-34
2023/03/25 01:29:29;;;;;;;10.05;3.63;;;10.60;99.90;;;;;;5062641;28;20073;-35
2023/03/25 01:31:56;;;;;;;5.30;1.60;;;10.60;99.90;;;;;;5061649;28;20071;-35
2023/03/25 01:34:21;;;;;;;6.80;2.03;;;10.60;99.90;;;;;;5060708;28;20031;-33
2023/03/25 01:36:48;;;;;;;5.78;1.63;;;10.60;99.90;;;;;;5061918;28;20044;-34
2023/03/25 01:39:15;;;;;;;5.40;1.80;;;10.60;99.90;;;;;;5059940;28;20020;-33
2023/03/25 01:41:42;;;;;;;4.57;1.58;;;10.60;99.90;;;;;;5061632;28;20151;-34
2023/03/25 01:44:18;;;;;;;7.20;2.10;;;10.60;99.90;;;;;;5061246;28;20149;-34
2023/03/25 01:46:45;;;;;;;5.82;1.40;;;10.60;99.90;;;;;;5060617;28;20090;-34
2023/03/25 01:49:23;;;;;;;5.93;1.70;;;10.60;99.90;;;;;;5061085;28;20086;-33
2023/03/25 01:52:16;;;;;;;4.93;1.80;;;10.60;99.90;;;;;;5062250;28;20117;-33
2023/03/25 01:54:44;;;;;;;6.88;1.98;;;10.60;99.90;;;;;;5061038;28;20044;-33
2023/03/25 01:57:12;;;;;;;6.55;2.13;;;10.60;99.90;;;;;;5060675;28;20071;-34
2023/03/25 01:59:38;;;;;;;8.25;2.30;;;10.60;99.90;;;;;;5061015;28;20055;-35
2023/03/25 02:02:07;;;;;;;4.97;1.55;;;10.60;99.90;;;;;;5060492;28;20094;-34
2023/03/25 02:04:50;;;;;;;7.90;1.75;;;10.60;99.90;;;;;;5061010;28;20033;-33
2023/03/25 02:07:17;;;;;;;6.10;1.65;;;10.60;99.90;;;;;;5060823;28;20081;-34
2023/03/25 02:09:43;;;;;;;8.35;2.00;;;10.50;99.90;;;;;;5061272;28;20048;-33
2023/03/25 02:12:09;;;;;;;6.32;1.73;;;10.40;99.90;;;;;;5060099;28;20064;-33
2023/03/25 02:14:36;;;;;;;6.93;1.75;;;10.40;99.90;;;;;;5061043;28;20099;-34
2023/03/25 02:17:13;;;;;;;7.18;1.67;;;10.30;99.90;;;;;;5061238;28;20048;-33
2023/03/25 02:20:07;;;;;;;7.47;1.52;;;10.30;99.90;;;;;;5060828;28;20474;-34
2023/03/25 02:22:42;;;;;;;8.55;1.95;;;10.30;99.90;;;;;;5051116;28;20032;-34
2023/03/25 02:25:24;;;;;;;8.38;1.90;;;10.20;99.90;;;;;;5061091;28;20074;-33
2023/03/25 02:28:48;;;;;;;6.97;2.10;;;10.20;99.90;;;;;;5052992;28;20033;-33
2023/03/25 02:31:49;;;;;;;4.78;1.35;;;10.20;99.90;;;;;;5035093;28;20295;-33
2023/03/25 02:34:17;;;;;;;5.25;1.58;;;10.20;99.90;;;;;;5001641;28;20149;-32
2023/03/25 02:37:02;;;;;;;7.65;2.30;;;10.10;99.90;;;;;;5051621;28;20060;-34
2023/03/25 02:39:31;;;;;;;6.93;2.53;;;10.10;99.90;;;;;;5041107;28;20032;-35
2023/03/25 02:42:15;;;;;;;6.63;1.65;;;10.10;99.90;;;;;;5057110;28;20031;-33
2023/03/25 02:44:47;;;;;;;6.40;1.98;;;10.00;99.90;;;;;;5061132;28;20028;-34
2023/03/25 02:47:17;;;;;;;8.52;2.10;;;9.90;99.90;;;;;;5060090;28;20021;-34
2023/03/25 02:49:53;;;;;;;5.90;2.15;;;9.80;99.90;;;;;;5061732;28;20036;-34
2023/03/25 02:52:32;;;;;;;4.15;1.85;;;9.80;99.90;;;;;;5064842;28;20063;-34
2023/03/25 02:55:03;;;;;;;3.58;1.80;;;9.70;99.90;;;;;;5045525;28;20060;-34
2023/03/25 02:57:32;;;;;;;7.15;2.17;;;9.70;99.90;;;;;;5060814;28;20541;-33
2023/03/25 02:59:58;;;;;;;6.35;2.33;;;9.70;99.90;;;;;;5044545;28;20502;-33
2023/03/25 03:02:27;;;;;;;6.18;2.40;;;9.70;99.90;;;;;;5058597;28;20024;-34
2023/03/25 03:04:56;;;;;;;6.40;2.00;;;9.70;99.90;;;;;;5064235;28;20048;-34
2023/03/25 03:07:24;;;;;;;9.38;2.67;;;9.70;99.90;;;;;;5064242;28;20056;-35
2023/03/25 03:10:19;;;;;;;10.05;2.53;;;9.60;99.90;;;;;;5064246;28;20028;-36
2023/03/25 03:13:11;;;;;;;9.63;3.25;;;9.70;99.90;;;;;;5064157;28;20029;-34
2023/03/25 03:15:51;;;;;;;5.45;2.10;;;9.60;99.90;;;;;;5044935;28;20041;-34
2023/03/25 03:18:56;;;;;;;3.38;1.80;;;9.60;99.90;;;;;;5060461;28;20016;-35
2023/03/25 03:22:00;;;;;;;2.78;1.60;;;9.60;99.90;;;;;;5063759;28;20028;-34
2023/03/25 03:24:39;;;;;;;4.18;1.70;;;9.60;99.90;;;;;;5053915;28;20036;-34
2023/03/25 03:27:11;;;;;;;6.82;2.03;;;9.50;99.90;;;;;;5063830;28;20035;-34
2023/03/25 03:30:06;;;;;;;6.43;2.08;;;9.50;99.90;;;;;;5064616;28;20059;-34
2023/03/25 03:33:03;;;;;;;3.60;1.77;;;9.50;99.90;;;;;;5063915;28;20031;-34
2023/03/25 03:35:37;;;;;;;6.47;1.73;;;9.50;99.90;;;;;;5061074;28;20032;-34
2023/03/25 03:38:08;;;;;;;8.23;2.00;;;9.50;99.90;;;;;;5063514;28;20526;-34
2023/03/25 03:40:36;;;;;;;3.92;2.28;;;9.50;99.90;;;;;;5064211;28;20028;-33
2023/03/25 03:43:16;;;;;;;6.75;2.58;;;9.50;99.90;;;;;;5063739;28;20140;-34
2023/03/25 03:45:48;;;;;;;4.63;2.45;;;9.50;99.90;;;;;;5063672;28;20409;-34
2023/03/25 03:48:28;;;;;;;5.55;2.40;;;9.50;99.90;;;;;;5063514;28;20036;-34
2023/03/25 03:51:01;;;;;;;6.07;2.33;;;9.50;99.90;;;;;;5064072;28;20382;-34
2023/03/25 03:53:35;;;;;;;5.30;1.92;;;9.50;99.90;;;;;;5062336;28;20040;-33
2023/03/25 03:56:20;;;;;;;5.95;2.00;;;9.50;99.90;;;;;;5063637;28;20040;-35
2023/03/25 03:58:52;;;;;;;5.63;2.10;;;9.50;99.90;;;;;;5064445;28;20051;-35
2023/03/25 04:01:44;;;;;;;4.50;2.13;;;9.50;99.90;;;;;;5062903;28;20029;-34
2023/03/25 04:04:17;;;;;;;6.10;2.30;;;9.50;99.90;;;;;;5062670;28;20036;-34
2023/03/25 04:07:09;;;;;;;5.75;2.65;;;9.50;99.90;;;;;;5063247;28;20111;-34
2023/03/25 04:10:01;;;;;;;6.82;2.25;;;9.60;99.90;;;;;;5063683;28;20494;-34
2023/03/25 04:12:32;;;;;;;8.02;2.30;;;9.60;99.90;;;;;;5043206;28;20108;-34
2023/03/25 04:15:04;;;;;;;6.32;2.45;;;9.60;99.90;;;;;;5058756;28;20052;-34
2023/03/25 04:17:31;;;;;;;4.78;2.10;;;9.60;99.90;;;;;;5063503;28;20042;-34
2023/03/25 04:19:58;;;;;;;8.15;2.20;;;9.60;99.90;;;;;;5063371;28;20074;-34
2023/03/25 04:22:27;;;;;;;9.50;2.47;;;9.60;99.90;;;;;;5062006;28;20630;-34
2023/03/25 04:24:54;;;;;;;10.13;2.40;;;9.70;99.90;;;;;;5062601;28;20107;-34
2023/03/25 04:27:23;;;;;;;8.10;2.70;;;9.60;99.90;;;;;;5063219;28;20016;-35
2023/03/25 04:29:50;;;;;;;8.75;2.28;;;9.70;99.90;;;;;;5062246;28;20841;-34
2023/03/25 04:32:19;;;;;;;7.00;2.40;;;9.60;99.90;;;;;;5062270;28;20411;-34
2023/03/25 04:34:47;;;;;;;10.27;2.72;;;9.70;99.90;;;;;;5062129;28;20828;-34
2023/03/25 04:37:13;;;;;;;5.13;2.30;;;9.70;99.90;;;;;;5062172;28;20040;-34
2023/03/25 04:39:39;;;;;;;7.20;2.60;;;9.70;99.90;;;;;;5063224;28;20031;-34
2023/03/25 04:42:12;;;;;;;9.15;2.60;;;9.70;99.90;;;;;;5062277;28;20028;-34
2023/03/25 04:44:38;;;;;;;6.55;2.38;;;9.70;99.90;;;;;;5063201;28;20017;-34
2023/03/25 04:47:05;;;;;;;9.07;3.00;;;9.70;99.90;;;;;;5062185;28;20486;-34
2023/03/25 04:49:31;;;;;;;7.95;2.58;;;9.70;99.90;;;;;;5062555;28;20154;-34
2023/03/25 04:51:58;;;;;;;8.00;2.40;;;9.60;99.90;;;;;;5062327;28;20772;-34
2023/03/25 04:54:24;;;;;;;7.53;2.00;;;9.60;99.90;;;;;;5061772;28;20063;-33
2023/03/25 04:56:51;;;;;;;8.05;2.65;;;9.60;99.90;;;;;;5061869;28;20076;-33
2023/03/25 04:59:18;;;;;;;7.32;2.60;;;9.60;99.90;;;;;;5061744;28;20445;-33
2023/03/25 05:01:44;;;;;;;7.75;2.50;;;9.60;99.90;;;;;;5061718;28;20036;-33
2023/03/25 05:04:12;;;;;;;6.03;1.95;;;9.70;99.90;;;;;;5061534;28;20025;-33
2023/03/25 05:06:43;;;;;;;6.60;2.22;;;9.70;99.90;;;;;;5062493;28;20020;-36
2023/03/25 05:09:13;;;;;;;7.68;2.08;;;9.70;99.90;;;;;;5062137;28;20020;-34
2023/03/25 05:11:40;;;;;;;6.20;2.20;;;9.70;99.90;;;;;;5061976;28;20419;-34
2023/03/25 05:14:07;;;;;;;6.30;2.60;;;9.70;99.90;;;;;;5061218;28;20028;-34
2023/03/25 05:16:39;;;;;;;6.70;2.25;;;9.70;99.90;;;;;;5062217;28;20792;-35
2023/03/25 05:19:05;;;;;;;8.02;2.53;;;9.70;99.90;;;;;;5062117;28;20387;-34
2023/03/25 05:21:32;;;;;;;7.88;2.83;;;9.70;99.90;;;;;;5062680;28;20025;-34
2023/03/25 05:24:00;;;;;;;8.43;3.60;;;9.70;99.90;;;;;;5061946;28;20040;-35
2023/03/25 05:26:33;;;;;;;7.45;2.47;;;9.70;99.90;;;;;;5061872;28;20119;-34
2023/03/25 05:29:03;;;;;;;7.47;2.17;;;9.80;99.90;;;;;;5062350;28;20035;-34
2023/03/25 05:31:29;;;;;;;7.45;2.95;;;9.80;99.90;;;;;;5061351;28;20127;-34
2023/03/25 05:33:55;;;;;;;8.77;2.88;;;9.80;99.90;;;;;;5062353;28;20017;-34
2023/03/25 05:36:24;;;;;;;7.95;2.40;;;9.80;99.90;;;;;;5061075;28;20032;-34
2023/03/25 05:38:53;;;;;;;7.63;2.80;;;9.80;99.90;;;;;;5061569;28;20027;-33
2023/03/25 05:41:20;;;;;;;6.72;2.55;;;9.80;99.90;;;;;;5061003;28;20096;-34
2023/03/25 05:43:50;;;;;;;9.45;2.63;;;9.80;99.90;;;;;;5061698;28;20371;-34
2023/03/25 05:46:17;;;;;;;8.63;2.58;;;9.80;99.90;;;;;;5060969;28;20441;-33
2023/03/25 05:48:44;;;;;;;8.15;2.58;;;9.80;99.90;;;;;;5061881;28;20017;-34
2023/03/25 05:51:16;;;;;;;6.82;2.85;;;9.80;99.90;;;;;;5061040;28;20033;-33
2023/03/25 05:53:43;;;;;;;8.67;2.90;;;9.80;99.90;;;;;;5060543;28;20697;-33
2023/03/25 05:56:10;;;;;;;6.90;2.88;;;9.80;99.90;;;;;;5060820;28;20067;-34
2023/03/25 05:58:36;;;;;;;11.05;2.90;;;9.80;99.90;;;;;;5061065;28;20020;-34
2023/03/25 06:01:03;;;;;;;6.93;2.35;;;9.80;99.90;;;;;;5061065;28;20085;-34
2023/03/25 06:03:29;;;;;;;5.43;2.60;;;9.80;99.90;;;;;;5061047;28;20070;-33
2023/03/25 06:05:55;;;;;;;8.07;2.80;;;9.80;99.90;;;;;;5061389;28;20125;-34
2023/03/25 06:08:25;;;;;;;5.28;2.47;;;9.80;99.90;;;;;;5059922;28;20511;-34
2023/03/25 06:11:00;;;;;;;5.95;2.47;;;9.80;99.90;;;;;;5061372;28;20032;-34
2023/03/25 06:13:26;;;;;;;8.00;3.17;;;9.80;99.90;;;;;;5059977;28;20017;-34
2023/03/25 06:15:55;;;;;;;10.60;2.70;;;9.80;99.90;;;;;;5061025;28;20031;-34
2023/03/25 06:18:23;;;;;;;6.82;2.60;;;9.80;99.90;;;;;;5059717;28;20539;-34
2023/03/25 06:20:52;;;;;;;9.60;3.10;;;9.70;99.90;;;;;;5060091;28;20495;-36
2023/03/25 06:23:21;;;;;;;7.45;2.63;;;9.70;99.90;;;;;;5060635;28;20106;-35
2023/03/25 06:25:47;;;;;;;3.90;2.42;;;9.60;99.90;;;;;;5060290;28;20031;-35
2023/03/25 06:28:19;;;;;;;7.57;2.88;;;9.60;99.90;;;;;;5059392;28;20100;-35
2023/03/25 06:30:46;;;;;;;6.85;2.90;;;9.60;99.90;;;;;;5050858;28;20094;-35
2023/03/25 06:33:12;;;;;;;6.75;3.17;;;9.60;99.90;;;;;;5060362;28;20037;-35
2023/03/25 06:35:42;;;;;;;11.95;3.65;;;9.60;99.90;;;;;;5060368;28;20024;-35
2023/03/25 06:38:12;;;;;;;8.07;3.30;;;9.60;99.90;;;;;;5060454;28;20028;-34
2023/03/25 06:40:38;;;;;;;6.63;2.92;;;9.50;99.90;;;;;;5060379;28;20460;-34
2023/03/25 06:43:04;;;;;;;9.57;3.35;;;9.60;99.90;;;;;;5059591;28;20060;-33
2023/03/25 06:45:31;;;;;;;9.13;3.38;;;9.60;99.90;;;;;;5061018;28;20021;-33
2023/03/25 06:47:57;;;;;;;13.30;3.47;;;9.60;99.90;;;;;;5060793;28;20020;-33
2023/03/25 06:50:23;;;;;;;9.77;2.92;;;9.70;99.90;;;;;;5059559;28;20452;-33
2023/03/25 06:52:48;;;;;;;7.82;3.00;;;9.70;99.90;;;;;;5060759;28;20044;-33
2023/03/25 06:55:14;;;;;;;7.13;2.75;;;9.70;99.90;;;;;;5060460;28;20028;-34
2023/03/25 06:57:40;;;;;;;8.45;3.25;;;9.80;99.90;;;;;;5060507;28;20415;-33
2023/03/25 07:00:07;;;;;;;9.63;3.20;;;9.80;99.90;;;;;;5060186;28;20028;-34
2023/03/25 07:02:33;;;;;;;10.15;3.20;;;9.80;99.90;;;;;;5060318;28;20028;-35
2023/03/25 07:04:59;;;;;;;10.20;3.28;;;9.90;99.90;;;;;;5060413;28;20020;-33
2023/03/25 07:07:25;;;;;;;9.52;2.97;;;9.90;99.90;;;;;;5060224;28;20036;-34
2023/03/25 07:09:53;;;;;;;13.88;3.25;;;9.90;99.90;;;;;;5060610;28;20033;-34
2023/03/25 07:12:21;;;;;;;5.95;2.30;;;9.90;99.90;;;;;;5060783;28;20101;-34
2023/03/25 07:14:56;;;;;;;9.15;2.53;;;10.00;99.90;;;;;;5061279;28;20078;-34
2023/03/25 07:17:25;;;;;;;9.95;2.65;;;10.10;99.90;;;;;;5059871;28;20143;-35
2023/03/25 07:19:50;;;;;;;8.25;2.63;;;10.20;99.90;;;;;;5060507;28;20533;-34
2023/03/25 07:22:16;;;;;;;7.63;2.78;;;10.20;99.90;;;;;;5060777;28;20028;-34
2023/03/25 07:24:42;;;;;;;10.63;3.00;;;10.30;99.90;;;;;;5060799;28;20076;-33
2023/03/25 07:27:12;;;;;;;11.98;2.50;;;10.30;99.90;;;;;;5060467;28;20104;-34
2023/03/25 07:29:38;;;;;;;9.77;2.50;;;10.30;99.90;;;;;;5060512;28;20027;-34
2023/03/25 07:32:04;;;;;;;7.07;2.60;;;10.20;99.90;;;;;;5058659;28;20495;-35
2023/03/25 07:34:30;;;;;;;10.27;2.67;;;10.20;99.90;;;;;;5060210;28;20041;-35
2023/03/25 07:36:56;;;;;;;8.85;2.45;;;10.10;99.90;;;;;;5060509;28;20032;-35
2023/03/25 07:39:24;;;;;;;8.80;2.63;;;10.10;99.90;;;;;;5062965;28;20458;-36
2023/03/25 07:41:50;;;;;;;8.00;2.47;;;10.00;99.90;;;;;;5063355;28;20455;-35
2023/03/25 07:44:19;;;;;;;11.15;2.92;;;10.00;99.90;;;;;;5063185;28;20040;-35
2023/03/25 07:46:45;;;;;;;12.57;3.17;;;10.00;99.90;;;;;;5063344;28;20108;-36
2023/03/25 07:49:10;;;;;;;9.52;2.72;;;10.00;99.90;;;;;;5063315;28;20097;-35
2023/03/25 07:51:36;;;;;;;13.30;3.55;;;10.00;99.90;;;;;;5063752;28;20020;-34
2023/03/25 07:54:02;;;;;;;12.15;3.03;;;10.00;99.90;;;;;;5062708;28;20052;-35
2023/03/25 07:56:27;;;;;;;13.82;3.20;;;9.90;99.90;;;;;;5062724;28;20040;-35
2023/03/25 07:58:53;;;;;;;11.45;2.80;;;10.00;99.90;;;;;;5062662;28;20025;-35
2023/03/25 08:01:18;;;;;;;9.65;3.00;;;9.90;99.90;;;;;;5062788;28;20021;-35
2023/03/25 08:03:44;;;;;;;10.18;3.53;;;10.00;99.90;;;;;;5062972;28;20430;-34
2023/03/25 08:06:10;;;;;;;9.43;2.63;;;10.00;99.90;;;;;;5062720;28;20055;-35
2023/03/25 08:08:36;;;;;;;10.52;3.08;;;10.10;99.90;;;;;;5063710;28;20020;-35
2023/03/25 08:11:02;;;;;;;9.43;3.00;;;10.10;99.90;;;;;;5063612;28;20051;-35
2023/03/25 08:13:28;;;;;;;11.65;3.50;;;10.20;99.90;;;;;;5062411;28;20105;-34
2023/03/25 08:15:54;;;;;;;10.35;2.70;;;10.20;99.90;;;;;;5063425;28;20040;-34
2023/03/25 08:18:20;;;;;;;9.15;2.95;;;10.20;99.90;;;;;;5062118;28;20036;-34
2023/03/25 08:20:47;;;;;;;11.77;3.42;;;10.20;99.90;;;;;;5063173;28;20070;-34
2023/03/25 08:23:18;;;;;;;9.00;2.67;;;10.10;99.90;;;;;;5062270;28;20024;-35
2023/03/25 08:25:44;;;;;;;12.55;3.33;;;10.10;99.90;;;;;;5063509;28;20063;-34
2023/03/25 08:28:10;;;;;;;12.68;3.05;;;10.10;99.90;;;;;;5062387;28;20035;-33
2023/03/25 08:30:39;;;;;;;13.18;3.00;;;10.20;99.90;;;;;;5062874;28;20033;-34
2023/03/25 08:33:06;;;;;;;8.75;2.95;;;10.30;99.90;;;;;;5062435;28;20032;-33
2023/03/25 08:35:33;;;;;;;10.77;2.45;;;10.50;99.90;;;;;;5062191;28;20079;-34
2023/03/25 08:38:00;;;;;;;12.75;3.33;;;10.50;99.90;;;;;;5063071;28;20029;-34
2023/03/25 08:40:26;;;;;;;9.80;2.63;;;10.60;99.90;;;;;;5062835;28;20032;-34
2023/03/25 08:42:52;;;;;;;13.00;2.95;;;10.70;99.90;;;;;;5062166;28;20105;-35
2023/03/25 08:45:18;;;;;;;12.82;3.05;;;10.70;99.90;;;;;;5062729;28;20098;-33
2023/03/25 08:47:45;;;;;;;10.65;2.78;;;10.80;99.90;;;;;;5062388;28;20495;-34
2023/03/25 08:50:11;;;;;;;9.82;2.92;;;10.80;99.90;;;;;;5060584;28;20028;-35
2023/03/25 08:52:37;;;;;;;11.98;2.85;;;10.90;99.90;;;;;;5062704;28;20694;-34
2023/03/25 08:55:06;;;;;;;16.40;4.28;;;11.00;99.90;;;;;;5060529;28;20234;-35
2023/03/25 08:57:35;;;;;;;9.82;2.80;;;11.20;99.90;;;;;;5062826;28;20041;-33
2023/03/25 09:00:11;;;;;;;11.32;2.67;;;11.30;99.90;;;;;;5063081;28;20146;-34
2023/03/25 09:02:37;;;;;;;11.60;2.90;;;11.30;99.90;;;;;;5062551;28;20060;-34
2023/03/25 09:05:03;;;;;;;11.80;2.83;;;11.30;99.90;;;;;;5062637;28;20134;-33
2023/03/25 09:07:29;;;;;;;10.70;2.50;;;11.30;99.90;;;;;;5063320;28;20028;-33
2023/03/25 09:09:55;;;;;;;14.43;3.28;;;11.30;99.90;;;;;;5062435;28;20111;-34
2023/03/25 09:12:20;;;;;;;9.85;2.95;;;11.20;99.90;;;;;;5062128;28;20127;-34
2023/03/25 09:14:46;;;;;;;11.15;2.97;;;11.10;99.90;;;;;;5062726;28;20016;-33
2023/03/25 09:17:12;;;;;;;12.45;3.25;;;11.00;99.90;;;;;;5061206;28;20072;-34
2023/03/25 09:19:37;;;;;;;12.73;3.08;;;10.80;99.90;;;;;;5061298;28;20099;-34
2023/03/25 09:22:03;;;;;;;14.05;3.33;;;10.80;99.90;;;;;;5061724;28;20025;-35
2023/03/25 09:24:32;;;;;;;11.90;2.50;;;10.80;99.90;;;;;;5061134;28;20462;-34
2023/03/25 09:26:59;;;;;;;10.70;2.78;;;10.80;99.90;;;;;;5061436;28;20558;-33
2023/03/25 09:29:25;;;;;;;11.20;3.05;;;10.80;99.90;;;;;;5061829;28;20131;-35
2023/03/25 09:31:50;;;;;;;12.30;2.78;;;10.80;99.90;;;;;;5061431;28;20123;-34
2023/03/25 09:34:16;;;;;;;11.15;3.33;;;10.80;99.90;;;;;;5061191;28;20031;-34
2023/03/25 09:36:41;;;;;;;12.35;3.67;;;10.70;99.90;;;;;;5061539;28;20059;-35
2023/03/25 09:39:07;;;;;;;15.98;2.85;;;10.60;99.90;;;;;;5060498;28;20056;-33
2023/03/25 09:41:57;;;;;;;11.07;2.83;;;10.50;99.90;;;;;;5061685;28;20082;-33
2023/03/25 09:45:00;;;;;;;11.35;2.85;;;10.40;99.90;;;;;;5060083;28;20379;-35
2023/03/25 09:47:32;;;;;;;14.88;3.42;;;10.40;99.90;;;;;;5051696;28;20033;-34
2023/03/25 09:50:00;;;;;;;17.73;3.33;;;10.40;99.90;;;;;;5061762;28;20034;-35
2023/03/25 09:52:41;;;;;;;11.50;3.50;;;10.50;99.90;;;;;;5061132;28;20278;-34
2023/03/25 09:55:13;;;;;;;12.95;4.63;;;10.50;99.90;;;;;;5061037;28;20081;-35
2023/03/25 09:57:54;;;;;;;10.80;3.05;;;10.50;99.90;;;;;;5051673;28;20090;-34
2023/03/25 10:00:23;;;;;;;15.85;3.63;;;10.40;99.90;;;;;;5059946;28;20052;-34
2023/03/25 10:03:12;;;;;;;12.90;2.90;;;10.50;99.90;;;;;;5061676;28;20078;-35
2023/03/25 10:05:57;;;;;;;14.30;3.53;;;10.60;99.90;;;;;;5060695;28;20028;-35
2023/03/25 10:08:29;;;;;;;11.85;3.05;;;10.80;99.90;;;;;;5061406;28;20028;-35
2023/03/25 10:11:04;;;;;;;18.45;3.33;;;10.90;99.90;;;;;;5061267;28;20476;-34
2023/03/25 10:13:58;;;;;;;14.38;3.58;;;11.00;99.90;;;;;;5059995;28;20029;-35
2023/03/25 10:16:29;;;;;;;14.32;3.33;;;11.20;99.90;;;;;;5060575;28;20090;-35
2023/03/25 10:19:10;;;;;;;18.20;3.47;;;11.30;99.90;;;;;;5061052;28;20086;-34
2023/03/25 10:21:41;;;;;;;15.27;3.20;;;11.40;99.90;;;;;;5060669;28;20020;-34
2023/03/25 10:24:40;;;;;;;12.48;3.08;;;11.50;99.90;;;;;;5060955;28;20020;-34
2023/03/25 10:27:18;;;;;;;18.23;4.30;;;11.50;99.90;;;;;;5060039;28;20086;-34
2023/03/25 10:30:25;;;;;;;20.05;3.38;;;11.50;99.90;;;;;;5061390;28;20021;-34
2023/03/25 10:33:00;;;;;;;21.25;4.07;;;11.60;99.90;;;;;;5060560;28;20032;-34
2023/03/25 10:35:38;;;;;;;15.88;3.78;;;11.70;99.90;;;;;;5061408;28;20086;-34
2023/03/25 10:38:11;;;;;;;15.50;2.92;;;11.70;99.90;;;;;;5060629;28;20036;-34
2023/03/25 10:40:48;;;;;;;12.20;3.40;;;11.60;99.90;;;;;;5060658;28;20440;-34
2023/03/25 10:43:35;;;;;;;12.65;3.13;;;11.50;99.90;;;;;;5060483;28;20135;-34
2023/03/25 10:46:08;;;;;;;13.02;4.28;;;11.30;99.90;;;;;;5061108;28;20626;-34
2023/03/25 10:48:34;;;;;;;19.20;3.90;;;11.20;99.90;;;;;;5060136;28;20439;-35
2023/03/25 10:51:09;;;;;;;14.68;3.22;;;11.20;99.90;;;;;;5061103;28;20650;-33
2023/03/25 10:53:35;;;;;;;13.60;3.25;;;11.20;99.90;;;;;;5060798;28;20159;-34
2023/03/25 10:56:23;;;;;;;16.33;3.22;;;11.20;99.90;;;;;;5060730;28;20028;-34
2023/03/25 10:58:52;;;;;;;16.85;3.17;;;11.00;99.90;;;;;;5060068;28;20085;-34
2023/03/25 11:01:26;;;;;;;14.18;4.03;;;11.00;99.90;;;;;;5060058;28;20056;-35
2023/03/25 11:03:52;;;;;;;15.00;2.95;;;10.90;99.90;;;;;;5060472;28;20060;-35
2023/03/25 11:06:28;;;;;;;17.00;3.85;;;11.00;99.90;;;;;;5061227;28;20135;-36
2023/03/25 11:09:31;;;;;;;17.08;3.65;;;11.00;99.90;;;;;;5059722;28;20028;-34
2023/03/25 11:12:01;;;;;;;12.57;2.70;;;11.00;99.90;;;;;;5041696;28;20037;-35
2023/03/25 11:14:28;;;;;;;20.85;3.70;;;11.00;99.90;;;;;;5064462;28;20486;-34
2023/03/25 11:17:02;;;;;;;17.65;3.40;;;11.00;99.90;;;;;;5064061;28;20494;-34
2023/03/25 11:19:41;;;;;;;12.55;2.92;;;11.00;99.90;;;;;;5064607;28;20031;-35
2023/03/25 11:22:16;;;;;;;14.50;3.13;;;11.10;99.90;;;;;;5064741;28;20481;-36
2023/03/25 11:25:05;;;;;;;13.05;2.58;;;11.10;99.90;;;;;;5064374;28;20153;-34
2023/03/25 11:27:41;;;;;;;15.60;2.85;;;11.20;99.90;;;;;;5064595;28;20032;-36
2023/03/25 11:30:18;;;;;;;13.48;2.90;;;11.20;99.90;;;;;;5062109;28;20024;-35
2023/03/25 11:32:55;;;;;;;13.65;3.05;;;11.10;99.90;;;;;;5065337;28;20036;-35
2023/03/25 11:35:25;;;;;;;12.50;2.75;;;11.10;99.90;;;;;;5063181;28;20016;-35
2023/03/25 11:37:57;;;;;;;10.88;2.22;;;11.00;99.90;;;;;;5064071;28;20098;-35
2023/03/25 11:40:23;;;;;;;11.55;3.20;;;10.90;99.90;;;;;;5063671;28;20391;-34
2023/03/25 11:42:54;;;;;;;13.85;3.10;;;10.90;99.90;;;;;;5064891;28;20020;-34
2023/03/25 11:45:33;;;;;;;18.17;3.25;;;11.00;99.90;;;;;;5063030;28;20029;-35
2023/03/25 11:48:07;;;;;;;12.48;2.42;;;11.10;99.90;;;;;;5064941;28;20113;-34
2023/03/25 11:50:34;;;;;;;10.95;2.20;;;11.20;99.90;;;;;;5064031;28;20340;-35
2023/03/25 11:53:02;;;;;;;11.45;2.70;;;11.30;99.90;;;;;;5062727;28;20100;-34
2023/03/25 11:55:42;;;;;;;10.38;2.28;;;11.40;99.90;;;;;;5063498;28;20047;-34
2023/03/25 11:58:17;;;;;;;11.25;2.53;;;11.50;99.90;;;;;;5063334;28;20126;-33
2023/03/25 12:00:52;;;;;;;12.38;2.40;;;11.60;99.90;;;;;;5063538;28;20029;-33
2023/03/25 12:03:21;;;;;;;12.52;2.92;;;11.70;99.90;;;;;;5063611;28;20024;-34
2023/03/25 12:06:17;;;;;;;12.65;3.35;;;11.80;99.90;;;;;;5063229;28;20444;-34
2023/03/25 12:08:59;;;;;;;11.13;2.40;;;11.90;99.90;;;;;;5044044;28;20064;-33
2023/03/25 12:11:31;;;;;;;13.33;2.57;;;12.10;99.90;;;;;;5063242;28;20029;-33
2023/03/25 12:14:25;;;;;;;13.25;2.42;;;12.20;99.90;;;;;;5062769;28;20765;-34
2023/03/25 12:17:15;;;;;;;14.20;2.67;;;12.20;99.90;;;;;;5060343;28;20852;-34
2023/03/25 12:20:12;;;;;;;10.13;2.05;;;12.30;99.90;;;;;;5063607;28;20095;-33
2023/03/25 12:22:58;;;;;;;7.32;2.28;;;12.40;99.90;;;;;;5054120;28;20063;-34
2023/03/25 12:25:52;;;;;;;10.40;2.15;;;12.50;99.90;;;;;;5062576;28;20047;-33
2023/03/25 12:28:46;;;;;;;7.85;1.98;;;12.60;99.90;;;;;;5062811;28;20045;-35
2023/03/25 12:31:30;;;;;;;16.88;3.22;;;12.70;99.90;;;;;;5062944;28;20036;-34
2023/03/25 12:34:26;;;;;;;8.52;2.38;;;12.70;99.90;;;;;;5062222;28;20075;-34
2023/03/25 12:37:01;;;;;;;12.02;2.58;;;12.60;99.90;;;;;;5063029;28;20083;-34
2023/03/25 12:40:00;;;;;;;11.45;2.10;;;12.50;99.90;;;;;;5063227;28;20162;-34
2023/03/25 12:42:42;;;;;;;10.07;2.55;;;12.30;99.90;;;;;;5062732;28;20028;-36
2023/03/25 12:45:36;;;;;;;14.23;2.20;;;12.20;99.90;;;;;;5062731;28;20107;-34
2023/03/25 12:48:21;;;;;;;9.90;1.85;;;12.00;99.90;;;;;;5061921;28;20446;-34
2023/03/25 12:51:15;;;;;;;10.20;2.28;;;11.80;99.90;;;;;;5062554;28;20102;-42
2023/03/25 12:53:55;;;;;;;8.95;1.65;;;11.50;99.90;;;;;;5053326;28;20151;-42
2023/03/25 12:56:47;;;;;;;6.75;1.30;;;11.20;99.90;;;;;;5061411;28;20158;-42
2023/03/25 12:59:32;;;;;;;5.57;1.40;;;11.00;99.90;;;;;;5061281;28;20772;-43
2023/03/25 13:02:03;;;;;;;6.15;1.45;;;10.70;99.90;;;;;;5061128;28;20840;-43
2023/03/25 13:04:41;;;;;;;9.75;2.25;;;10.40;99.90;;;;;;5062390;28;20021;-42
2023/03/25 13:07:09;;;;;;;5.95;1.90;;;10.30;99.90;;;;;;5058136;28;20040;-42
2023/03/25 13:09:48;;;;;;;10.57;2.95;;;10.20;99.90;;;;;;5061953;28;20052;-43
2023/03/25 13:12:45;;;;;;;10.18;1.88;;;10.20;99.90;;;;;;5061036;28;20796;-43